Time;durP1;ratioP1;P1;durP2;ratioP2;P2;SDS_P1;SDS_P2;PMS_P1;PMS_P2;Temp;Humidity;BMP_temperature;BMP_pressure;BME280_temperature;BME280_humidity;BME280_pressure;Samples;Min_cycle;Max_cycle;Signal;HPM_P1;HPM_P2
2023/05/17 00:02:23;;;;;;;10.93;4.60;;;9.10;84.30;;;;;;4883616;29;20048;-86
2023/05/17 00:04:49;;;;;;;12.18;4.85;;;9.10;84.40;;;;;;4858237;29;20116;-87
2023/05/17 00:07:14;;;;;;;13.73;4.47;;;9.00;84.50;;;;;;4869050;29;20044;-86
2023/05/17 00:09:40;;;;;;;12.15;5.35;;;9.00;84.60;;;;;;4861115;29;20053;-87
2023/05/17 00:12:06;;;;;;;11.45;4.80;;;9.00;84.50;;;;;;4865479;29;20029;-85
2023/05/17 00:14:32;;;;;;;13.38;4.50;;;9.00;84.50;;;;;;4861274;29;20029;-85
2023/05/17 00:16:57;;;;;;;12.13;4.90;;;9.00;84.30;;;;;;4865183;29;20455;-85
2023/05/17 00:19:23;;;;;;;12.68;4.70;;;8.90;84.20;;;;;;4883149;29;20033;-85
2023/05/17 00:21:49;;;;;;;12.82;4.57;;;8.80;84.20;;;;;;4862846;29;20067;-85
2023/05/17 00:24:15;;;;;;;12.75;5.03;;;8.80;84.50;;;;;;4863415;29;20037;-85
2023/05/17 00:26:40;;;;;;;11.35;4.95;;;8.80;84.70;;;;;;4872488;29;20041;-85
2023/05/17 00:29:06;;;;;;;10.48;4.90;;;8.80;84.90;;;;;;4864615;29;20025;-85
2023/05/17 00:31:32;;;;;;;10.20;4.88;;;8.80;84.90;;;;;;4864880;29;20069;-85
2023/05/17 00:33:57;;;;;;;12.70;5.05;;;8.80;84.90;;;;;;4882232;29;20097;-86
2023/05/17 00:36:23;;;;;;;12.23;5.35;;;8.70;85.10;;;;;;4859400;29;20064;-86
2023/05/17 00:38:49;;;;;;;9.60;4.50;;;8.70;85.10;;;;;;4863822;29;20025;-86
2023/05/17 00:41:14;;;;;;;9.70;4.60;;;8.70;85.10;;;;;;4861134;29;20041;-85
2023/05/17 00:43:40;;;;;;;10.13;4.95;;;8.70;85.00;;;;;;4875204;29;20039;-86
2023/05/17 00:46:06;;;;;;;12.88;4.70;;;8.70;85.10;;;;;;4882861;29;20037;-86
2023/05/17 00:48:32;;;;;;;9.82;4.72;;;8.70;85.20;;;;;;4866832;29;20146;-86
2023/05/17 00:50:58;;;;;;;13.93;5.97;;;8.60;85.20;;;;;;4865944;29;20025;-86
2023/05/17 00:53:24;;;;;;;9.00;4.65;;;8.60;85.20;;;;;;4862387;29;20787;-86
2023/05/17 00:55:50;;;;;;;10.38;4.70;;;8.60;85.00;;;;;;4881638;29;20093;-86
2023/05/17 00:58:16;;;;;;;11.20;4.55;;;8.60;84.90;;;;;;4863938;29;20075;-86
2023/05/17 01:00:42;;;;;;;12.90;4.75;;;8.50;84.90;;;;;;4864163;29;20122;-86
2023/05/17 01:03:08;;;;;;;11.10;4.63;;;8.50;85.10;;;;;;4864699;29;20095;-85
2023/05/17 01:05:34;;;;;;;10.52;5.03;;;8.50;85.10;;;;;;4870545;29;20493;-85
2023/05/17 01:07:59;;;;;;;12.52;4.68;;;8.50;85.10;;;;;;4861736;29;20060;-85
2023/05/17 01:10:36;;;;;;;13.38;5.35;;;8.40;85.10;;;;;;4908048;29;20061;-84
2023/05/17 01:13:07;;;;;;;13.00;4.65;;;8.40;85.10;;;;;;4899925;29;20520;-84
2023/05/17 01:15:40;;;;;;;12.65;5.00;;;8.40;85.10;;;;;;4885868;29;20028;-85
2023/05/17 01:18:43;;;;;;;11.48;5.53;;;8.40;85.20;;;;;;4885846;29;20289;-85
2023/05/17 01:21:21;;;;;;;11.05;5.00;;;8.40;85.10;;;;;;4866235;29;20056;-85
2023/05/17 01:24:27;;;;;;;14.15;5.03;;;8.30;85.30;;;;;;4898907;29;20115;-85
2023/05/17 01:26:55;;;;;;;9.20;4.72;;;8.30;85.20;;;;;;4895409;29;20048;-85
2023/05/17 01:29:26;;;;;;;10.40;5.25;;;8.20;85.30;;;;;;4882892;29;20119;-85
2023/05/17 01:31:53;;;;;;;10.35;4.95;;;8.30;85.50;;;;;;4895874;29;20069;-85
2023/05/17 01:34:28;;;;;;;9.77;4.88;;;8.30;85.60;;;;;;4884349;29;20032;-85
2023/05/17 01:36:55;;;;;;;12.35;5.32;;;8.20;85.60;;;;;;4880718;29;20164;-85
2023/05/17 01:39:20;;;;;;;14.35;4.93;;;8.10;85.20;;;;;;4880410;29;20108;-85
2023/05/17 01:42:00;;;;;;;12.98;5.28;;;8.10;85.10;;;;;;4877869;29;20109;-86
2023/05/17 01:44:31;;;;;;;8.85;4.70;;;8.10;85.00;;;;;;4886716;29;20069;-85
2023/05/17 01:47:08;;;;;;;13.13;5.55;;;8.10;85.20;;;;;;4879861;29;20509;-85
2023/05/17 01:49:39;;;;;;;8.85;4.82;;;8.10;85.30;;;;;;4884807;29;20139;-84
2023/05/17 01:52:28;;;;;;;10.88;5.50;;;8.00;85.50;;;;;;4880550;29;20040;-85
2023/05/17 01:54:57;;;;;;;11.60;5.15;;;8.00;85.70;;;;;;4885270;29;20099;-85
2023/05/17 01:57:28;;;;;;;10.45;4.95;;;8.00;85.70;;;;;;4901098;29;20504;-85
2023/05/17 01:59:58;;;;;;;11.25;5.07;;;8.00;85.70;;;;;;4889897;29;20040;-85
2023/05/17 02:02:24;;;;;;;12.38;5.70;;;7.90;85.70;;;;;;4901222;29;20055;-85
2023/05/17 02:04:50;;;;;;;12.88;5.85;;;7.90;85.50;;;;;;4884046;29;20040;-85
2023/05/17 02:07:16;;;;;;;12.32;5.22;;;7.80;85.50;;;;;;4883640;29;20051;-85
2023/05/17 02:09:41;;;;;;;14.02;6.45;;;7.80;86.00;;;;;;4882298;29;20485;-85
2023/05/17 02:12:07;;;;;;;15.45;7.28;;;7.70;86.20;;;;;;4888129;29;20032;-84
2023/05/17 02:14:33;;;;;;;12.32;5.90;;;7.70;86.30;;;;;;4903438;29;20526;-84
2023/05/17 02:16:59;;;;;;;12.10;6.20;;;7.70;86.60;;;;;;4901550;29;20103;-85
2023/05/17 02:19:24;;;;;;;12.40;6.07;;;7.70;86.80;;;;;;4885675;29;20033;-84
2023/05/17 02:21:50;;;;;;;11.82;6.30;;;7.70;86.90;;;;;;4887962;29;20136;-85
2023/05/17 02:24:16;;;;;;;13.27;6.63;;;7.60;87.20;;;;;;4891545;29;20354;-85
2023/05/17 02:26:42;;;;;;;12.65;6.20;;;7.60;87.30;;;;;;4882895;29;20044;-86
2023/05/17 02:29:09;;;;;;;13.27;6.57;;;7.60;87.50;;;;;;4887214;29;20474;-86
2023/05/17 02:31:35;;;;;;;11.65;6.35;;;7.70;87.60;;;;;;4884516;29;20108;-86
2023/05/17 02:34:01;;;;;;;12.38;6.03;;;7.60;87.60;;;;;;4889546;29;20413;-86
2023/05/17 02:36:27;;;;;;;12.88;6.47;;;7.60;87.70;;;;;;4888324;29;20530;-87
2023/05/17 02:38:52;;;;;;;9.90;5.88;;;7.60;87.70;;;;;;4895715;29;20101;-86
2023/05/17 02:41:18;;;;;;;14.35;6.97;;;7.60;87.70;;;;;;4912600;29;20433;-85
2023/05/17 02:43:44;;;;;;;12.00;6.47;;;7.50;87.60;;;;;;4884576;29;20041;-86
2023/05/17 02:46:10;;;;;;;12.00;6.90;;;7.40;87.70;;;;;;4888134;29;20033;-85
2023/05/17 02:48:36;;;;;;;13.43;6.38;;;7.40;87.80;;;;;;4883556;29;20029;-85
2023/05/17 02:51:01;;;;;;;13.93;7.53;;;7.40;87.90;;;;;;4872478;29;20048;-85
2023/05/17 02:53:27;;;;;;;14.15;6.72;;;7.40;88.00;;;;;;4889764;29;20040;-86
2023/05/17 02:55:56;;;;;;;15.10;6.53;;;7.50;88.20;;;;;;4884054;29;20036;-87
2023/05/17 02:58:23;;;;;;;12.68;5.82;;;7.50;88.00;;;;;;4892918;29;20111;-86
2023/05/17 03:00:49;;;;;;;11.13;5.90;;;7.50;87.90;;;;;;4882617;29;20040;-86
2023/05/17 03:03:15;;;;;;;11.43;6.78;;;7.40;87.80;;;;;;4905147;29;20033;-86
2023/05/17 03:05:42;;;;;;;13.18;6.70;;;7.40;87.90;;;;;;4882547;29;20060;-85
2023/05/17 03:08:08;;;;;;;16.77;6.63;;;7.40;87.90;;;;;;4892043;29;20038;-86
2023/05/17 03:10:33;;;;;;;11.82;6.47;;;7.40;87.90;;;;;;4884490;29;20482;-86
2023/05/17 03:12:59;;;;;;;13.23;7.07;;;7.50;87.80;;;;;;4886496;29;20028;-87
2023/05/17 03:15:28;;;;;;;12.13;6.63;;;7.40;87.80;;;;;;4899301;29;19923;-85
2023/05/17 03:17:55;;;;;;;10.90;6.47;;;7.40;87.60;;;;;;4883514;29;20497;-85
2023/05/17 03:20:21;;;;;;;11.65;6.35;;;7.30;87.50;;;;;;4903157;29;20058;-86
2023/05/17 03:22:47;;;;;;;11.02;6.32;;;7.30;87.50;;;;;;4881916;29;20064;-85
2023/05/17 03:25:13;;;;;;;11.35;6.43;;;7.40;87.30;;;;;;4891209;29;20485;-85
2023/05/17 03:27:38;;;;;;;11.93;5.95;;;7.30;87.20;;;;;;4887457;29;20104;-86
2023/05/17 03:30:04;;;;;;;12.82;6.35;;;7.20;87.10;;;;;;4890280;29;20349;-86
2023/05/17 03:32:30;;;;;;;11.95;6.65;;;7.30;87.10;;;;;;4887865;29;20044;-84
2023/05/17 03:34:56;;;;;;;13.00;6.60;;;7.20;87.10;;;;;;4881026;29;20131;-85
2023/05/17 03:37:22;;;;;;;13.70;6.75;;;7.20;87.00;;;;;;4881020;29;20040;-85
2023/05/17 03:39:47;;;;;;;13.30;6.32;;;7.20;87.10;;;;;;4895794;29;20028;-85
2023/05/17 03:42:13;;;;;;;14.73;6.50;;;7.10;87.10;;;;;;4882026;29;20044;-86
2023/05/17 03:44:39;;;;;;;14.75;7.53;;;7.20;87.20;;;;;;4882420;29;20051;-86
2023/05/17 03:47:05;;;;;;;13.80;7.28;;;7.20;87.20;;;;;;4882087;29;20097;-85
2023/05/17 03:49:31;;;;;;;15.73;7.50;;;7.20;87.30;;;;;;4879929;29;20033;-85
2023/05/17 03:51:57;;;;;;;12.48;6.57;;;7.20;87.40;;;;;;4896570;29;20046;-86
2023/05/17 03:54:23;;;;;;;12.73;6.72;;;7.30;87.30;;;;;;4896323;29;20033;-87
2023/05/17 03:56:49;;;;;;;12.77;6.65;;;7.30;87.30;;;;;;4896280;29;20041;-86
2023/05/17 03:59:15;;;;;;;12.70;7.43;;;7.30;87.20;;;;;;4901099;29;20115;-86
2023/05/17 04:01:42;;;;;;;14.18;7.88;;;7.30;87.20;;;;;;4880958;29;20040;-86
2023/05/17 04:04:08;;;;;;;12.63;6.82;;;7.30;87.20;;;;;;4887730;29;20119;-86
2023/05/17 04:06:34;;;;;;;13.20;7.72;;;7.40;87.00;;;;;;4890699;29;20032;-86
2023/05/17 04:09:00;;;;;;;15.68;6.88;;;7.40;86.90;;;;;;4910095;29;20035;-84
2023/05/17 04:11:26;;;;;;;12.48;7.03;;;7.40;86.80;;;;;;4895889;29;20524;-86
2023/05/17 04:13:53;;;;;;;16.77;7.10;;;7.50;86.80;;;;;;4900204;29;20643;-86
2023/05/17 04:16:19;;;;;;;14.32;6.43;;;7.60;86.60;;;;;;4886726;29;20119;-85
2023/05/17 04:18:46;;;;;;;13.63;7.22;;;7.50;86.30;;;;;;4880916;29;20036;-85
2023/05/17 04:21:12;;;;;;;15.20;7.65;;;7.60;86.30;;;;;;4888420;29;20044;-84
2023/05/17 04:23:38;;;;;;;14.77;8.02;;;7.60;86.40;;;;;;4879510;29;20457;-84
2023/05/17 04:26:04;;;;;;;16.20;7.45;;;7.70;86.50;;;;;;4902920;29;20033;-85
2023/05/17 04:28:31;;;;;;;11.52;7.18;;;7.80;86.60;;;;;;4882785;29;20065;-86
2023/05/17 04:30:57;;;;;;;16.02;8.23;;;7.80;86.60;;;;;;4880028;29;20060;-85
2023/05/17 04:33:23;;;;;;;12.20;7.00;;;7.90;86.60;;;;;;4877057;29;20036;-85
2023/05/17 04:35:49;;;;;;;13.00;7.47;;;7.90;86.60;;;;;;4879259;29;20037;-85
2023/05/17 04:38:16;;;;;;;17.13;9.35;;;8.00;86.60;;;;;;4875560;29;20492;-85
2023/05/17 04:40:41;;;;;;;17.35;8.27;;;8.10;86.60;;;;;;4872854;29;20044;-84
2023/05/17 04:43:08;;;;;;;15.13;7.32;;;8.10;86.60;;;;;;4872443;29;20052;-85
2023/05/17 04:45:33;;;;;;;16.60;7.00;;;8.20;86.40;;;;;;4875677;29;20045;-85
2023/05/17 04:48:00;;;;;;;13.98;8.15;;;8.20;86.60;;;;;;4873267;29;20048;-84
2023/05/17 04:50:26;;;;;;;15.32;9.20;;;8.30;86.40;;;;;;4884273;29;20119;-87
2023/05/17 04:52:51;;;;;;;20.52;9.07;;;8.30;86.40;;;;;;4875545;29;20151;-86
2023/05/17 04:55:17;;;;;;;15.50;7.90;;;8.40;86.40;;;;;;4881701;29;20032;-85
2023/05/17 04:57:43;;;;;;;20.40;9.73;;;8.50;86.50;;;;;;4871644;29;20615;-85
2023/05/17 05:00:09;;;;;;;16.27;9.07;;;8.50;86.40;;;;;;4882029;29;20080;-85
2023/05/17 05:02:35;;;;;;;18.33;8.50;;;8.60;86.40;;;;;;4876939;29;20028;-85
2023/05/17 05:05:03;;;;;;;14.65;8.85;;;8.60;86.30;;;;;;4882884;29;20085;-85
2023/05/17 05:07:30;;;;;;;17.48;8.52;;;8.80;86.30;;;;;;4891887;29;20107;-86
2023/05/17 05:09:56;;;;;;;16.40;8.40;;;8.80;86.10;;;;;;4877512;29;20123;-85
2023/05/17 05:12:21;;;;;;;14.77;8.80;;;9.00;86.10;;;;;;4870628;29;20054;-87
2023/05/17 05:14:47;;;;;;;14.80;9.57;;;9.00;86.00;;;;;;4873637;29;20039;-85
2023/05/17 05:17:13;;;;;;;17.35;10.05;;;9.10;86.00;;;;;;4882916;29;20485;-86
2023/05/17 05:19:38;;;;;;;18.67;10.18;;;9.10;86.00;;;;;;4887676;29;20028;-85
2023/05/17 05:22:04;;;;;;;17.10;9.20;;;9.20;85.90;;;;;;4870991;29;20457;-87
2023/05/17 05:24:30;;;;;;;15.57;8.77;;;9.30;85.90;;;;;;4871123;29;20040;-87
2023/05/17 05:26:56;;;;;;;14.82;9.10;;;9.40;85.90;;;;;;4888585;29;20505;-85
2023/05/17 05:29:21;;;;;;;14.68;8.95;;;9.50;85.80;;;;;;4879070;29;20020;-86
2023/05/17 05:31:47;;;;;;;15.95;9.90;;;9.60;85.90;;;;;;4894198;29;20044;-86
2023/05/17 05:34:13;;;;;;;19.20;10.27;;;9.70;85.60;;;;;;4881739;29;20036;-86
2023/05/17 05:36:52;;;;;;;;;;;;;;;;;;;;;
2023/05/17 05:39:18;;;;;;;13.68;8.95;;;9.80;85.60;;;;;;4899586;29;20039;-85
2023/05/17 05:41:43;;;;;;;18.33;9.80;;;10.00;85.30;;;;;;4893727;29;20037;-86
2023/05/17 05:44:09;;;;;;;17.23;9.18;;;10.10;85.40;;;;;;4877002;29;20414;-85
2023/05/17 05:46:35;;;;;;;16.02;10.25;;;10.20;85.20;;;;;;4877603;29;20398;-86
2023/05/17 05:49:00;;;;;;;15.25;9.70;;;10.20;85.30;;;;;;4875541;29;20031;-85
2023/05/17 05:51:26;;;;;;;16.88;10.38;;;10.40;85.10;;;;;;4873027;29;20131;-85
2023/05/17 05:53:52;;;;;;;16.83;9.82;;;10.50;84.90;;;;;;4878293;29;20049;-86
2023/05/17 05:56:18;;;;;;;21.63;10.00;;;10.60;84.70;;;;;;4879995;29;20040;-86
2023/05/17 05:58:43;;;;;;;22.58;9.85;;;10.70;84.30;;;;;;4877171;29;20029;-86
2023/05/17 06:01:09;;;;;;;17.98;10.10;;;10.70;84.00;;;;;;4874708;29;20065;-86
2023/05/17 06:03:36;;;;;;;17.55;10.00;;;10.80;84.10;;;;;;4892474;29;20124;-86
2023/05/17 06:06:01;;;;;;;21.23;10.82;;;10.80;84.10;;;;;;4891663;29;20032;-87
2023/05/17 06:08:30;;;;;;;18.98;9.27;;;10.90;83.60;;;;;;4889041;29;20037;-86
2023/05/17 06:10:56;;;;;;;20.02;10.45;;;10.90;84.00;;;;;;4872631;29;20494;-86
2023/05/17 06:13:21;;;;;;;17.30;10.48;;;11.00;84.00;;;;;;4882010;29;20025;-86
2023/05/17 06:15:47;;;;;;;18.80;10.90;;;11.00;83.90;;;;;;4877851;29;20052;-86
2023/05/17 06:18:13;;;;;;;20.25;10.30;;;11.00;83.70;;;;;;4881094;29;20032;-86
2023/05/17 06:20:38;;;;;;;17.52;10.48;;;11.10;83.60;;;;;;4894384;29;20089;-87
2023/05/17 06:23:04;;;;;;;18.52;9.68;;;11.20;83.80;;;;;;4873609;29;20040;-86
2023/05/17 06:25:30;;;;;;;18.85;9.63;;;11.50;83.10;;;;;;4879578;29;20400;-87
2023/05/17 06:27:56;;;;;;;19.27;10.07;;;11.60;82.40;;;;;;4890074;29;20060;-86
2023/05/17 06:30:21;;;;;;;17.33;10.10;;;11.80;82.60;;;;;;4897717;29;20025;-85
2023/05/17 06:32:47;;;;;;;16.58;10.15;;;12.10;82.40;;;;;;4881906;29;20342;-86
2023/05/17 06:35:13;;;;;;;19.73;10.05;;;12.20;81.40;;;;;;4876764;29;20271;-86
2023/05/17 06:37:38;;;;;;;16.25;9.38;;;12.40;80.60;;;;;;4876705;29;20077;-87
2023/05/17 06:40:06;;;;;;;15.30;8.32;;;12.50;80.50;;;;;;4878822;29;20060;-87
2023/05/17 06:42:32;;;;;;;14.90;8.88;;;12.50;79.90;;;;;;4888343;29;20056;-87
2023/05/17 06:44:59;;;;;;;20.35;10.02;;;12.50;79.80;;;;;;4885638;29;20037;-87
2023/05/17 06:47:25;;;;;;;17.33;9.35;;;12.50;79.80;;;;;;4889352;29;20256;-87
2023/05/17 06:49:50;;;;;;;20.42;8.70;;;12.50;80.10;;;;;;4889333;29;20025;-87
2023/05/17 06:52:16;;;;;;;26.83;10.07;;;12.60;80.00;;;;;;4884050;29;20080;-86
2023/05/17 06:54:42;;;;;;;12.48;7.55;;;12.70;79.10;;;;;;4889781;29;20115;-88
2023/05/17 06:57:08;;;;;;;17.20;8.45;;;12.90;78.80;;;;;;4889013;29;20036;-86
2023/05/17 06:59:35;;;;;;;19.85;8.07;;;13.20;78.60;;;;;;4892438;29;20108;-86
2023/05/17 07:02:01;;;;;;;17.90;7.45;;;13.40;77.80;;;;;;4898949;29;20048;-86
2023/05/17 07:04:27;;;;;;;16.65;7.82;;;13.40;76.50;;;;;;4886830;29;20768;-87
2023/05/17 07:06:52;;;;;;;14.80;7.45;;;13.60;76.70;;;;;;4903653;29;20067;-87
2023/05/17 07:09:20;;;;;;;16.50;7.68;;;13.70;76.40;;;;;;4909030;29;20032;-87
2023/05/17 07:11:46;;;;;;;17.10;7.10;;;13.70;75.80;;;;;;4908208;29;20068;-87
2023/05/17 07:14:12;;;;;;;14.43;7.18;;;13.80;76.20;;;;;;4887915;29;20399;-87
2023/05/17 07:16:38;;;;;;;14.48;7.03;;;14.00;76.30;;;;;;4903050;29;20181;-86
2023/05/17 07:19:04;;;;;;;15.50;6.88;;;14.20;77.10;;;;;;4877878;29;20041;-88
2023/05/17 07:21:31;;;;;;;15.05;6.75;;;14.20;74.30;;;;;;4890031;29;20244;-86
2023/05/17 07:23:57;;;;;;;18.73;7.07;;;14.10;75.20;;;;;;4887922;29;20065;-87
2023/05/17 07:26:23;;;;;;;18.25;7.63;;;14.10;75.30;;;;;;4901873;29;20132;-87
2023/05/17 07:28:48;;;;;;;17.15;6.60;;;14.10;74.90;;;;;;4887706;29;20040;-86
2023/05/17 07:31:14;;;;;;;16.27;6.95;;;14.20;74.70;;;;;;4907598;29;20556;-86
2023/05/17 07:33:40;;;;;;;16.90;7.07;;;14.50;74.50;;;;;;4892491;29;20117;-87
2023/05/17 07:36:07;;;;;;;16.38;7.30;;;14.60;73.70;;;;;;4886188;29;20139;-86
2023/05/17 07:38:35;;;;;;;16.58;6.55;;;14.60;74.30;;;;;;4889244;29;20039;-86
2023/05/17 07:41:02;;;;;;;13.95;6.50;;;14.80;72.70;;;;;;4892294;29;20027;-86
2023/05/17 07:43:29;;;;;;;17.48;6.65;;;14.70;71.00;;;;;;4894401;29;20066;-86
2023/05/17 07:45:55;;;;;;;19.88;7.05;;;15.00;70.50;;;;;;4890255;29;20092;-86
2023/05/17 07:48:21;;;;;;;21.15;7.07;;;15.10;70.10;;;;;;4896908;29;20048;-86
2023/05/17 07:50:48;;;;;;;17.58;6.63;;;15.30;70.10;;;;;;4902630;29;20151;-86
2023/05/17 07:53:14;;;;;;;14.27;6.75;;;15.30;69.70;;;;;;4900180;29;20089;-87
2023/05/17 07:55:40;;;;;;;15.55;5.10;;;15.20;68.00;;;;;;4884504;29;20036;-87
2023/05/17 07:58:08;;;;;;;13.85;5.72;;;14.90;66.90;;;;;;4884963;29;20107;-87
2023/05/17 08:00:34;;;;;;;14.68;6.47;;;15.10;67.20;;;;;;4891228;29;20032;-87
2023/05/17 08:03:00;;;;;;;17.33;6.65;;;15.30;68.30;;;;;;4884697;29;20400;-86
2023/05/17 08:05:26;;;;;;;15.80;6.25;;;15.40;67.40;;;;;;4890088;29;20139;-86
2023/05/17 08:07:53;;;;;;;13.88;5.93;;;15.60;67.20;;;;;;4885517;29;20049;-87
2023/05/17 08:10:18;;;;;;;15.43;6.07;;;15.60;65.70;;;;;;4884125;29;20052;-87
2023/05/17 08:12:45;;;;;;;13.77;5.93;;;15.30;67.20;;;;;;4885117;29;20033;-86
2023/05/17 08:15:11;;;;;;;15.35;6.50;;;15.60;67.00;;;;;;4892429;29;20028;-87
2023/05/17 08:17:36;;;;;;;12.70;5.10;;;15.60;65.80;;;;;;4886870;29;20112;-87
2023/05/17 08:20:04;;;;;;;12.18;5.53;;;15.70;66.10;;;;;;4887954;29;20457;-87
2023/05/17 08:22:30;;;;;;;12.80;4.93;;;15.80;64.60;;;;;;4885959;29;20043;-87
2023/05/17 08:24:56;;;;;;;10.55;4.57;;;15.80;62.20;;;;;;4884126;29;20045;-86
2023/05/17 08:27:23;;;;;;;11.23;4.80;;;15.70;64.20;;;;;;4888987;29;20127;-87
2023/05/17 08:29:50;;;;;;;14.02;5.38;;;15.90;63.40;;;;;;4896638;29;20057;-87
2023/05/17 08:32:16;;;;;;;21.33;6.63;;;15.70;63.40;;;;;;4885969;29;20088;-88
2023/05/17 08:34:41;;;;;;;13.90;4.97;;;15.90;63.70;;;;;;4882846;29;20469;-87
2023/05/17 08:37:08;;;;;;;15.65;6.22;;;16.00;63.70;;;;;;4884204;29;20050;-88
2023/05/17 08:39:34;;;;;;;12.77;5.63;;;16.10;61.60;;;;;;4900945;29;20123;-87
2023/05/17 08:42:01;;;;;;;14.13;5.95;;;16.10;63.50;;;;;;4898699;29;20044;-86
2023/05/17 08:44:27;;;;;;;12.73;4.68;;;16.10;63.80;;;;;;4911273;29;20071;-88
2023/05/17 08:46:55;;;;;;;11.85;4.40;;;16.50;62.00;;;;;;4887337;29;20048;-87
2023/05/17 08:49:22;;;;;;;9.75;4.38;;;16.80;61.50;;;;;;4882798;29;20025;-86
2023/05/17 08:51:52;;;;;;;13.13;4.25;;;17.20;59.20;;;;;;4885665;29;20047;-88
2023/05/17 08:54:18;;;;;;;12.10;4.47;;;16.80;57.80;;;;;;4889988;29;20028;-87
2023/05/17 08:56:46;;;;;;;10.40;4.03;;;16.50;59.60;;;;;;4879861;29;20589;-89
2023/05/17 08:59:12;;;;;;;12.38;4.93;;;16.80;58.70;;;;;;4876937;29;20052;-87
2023/05/17 09:01:53;;;;;;;12.02;4.47;;;16.30;59.60;;;;;;4900507;29;20096;-89
2023/05/17 09:04:20;;;;;;;10.07;4.05;;;16.60;58.60;;;;;;4902808;29;20035;-90
2023/05/17 09:06:46;;;;;;;13.07;4.43;;;16.60;60.60;;;;;;4896853;29;20047;-90
2023/05/17 09:09:17;;;;;;;11.93;3.92;;;16.40;59.70;;;;;;4888712;29;20029;-89
2023/05/17 09:11:44;;;;;;;9.65;4.05;;;16.20;58.70;;;;;;4890010;29;20059;-89
2023/05/17 09:14:13;;;;;;;11.15;4.50;;;16.30;58.70;;;;;;4894032;29;20433;-89
2023/05/17 09:16:42;;;;;;;14.05;3.88;;;16.50;60.00;;;;;;4897685;29;20040;-90
2023/05/17 09:19:16;;;;;;;11.70;3.50;;;16.80;58.30;;;;;;4925992;29;20017;-90
2023/05/17 09:21:48;;;;;;;9.93;3.90;;;16.60;55.40;;;;;;4896135;29;20041;-90
2023/05/17 09:24:28;;;;;;;13.20;3.95;;;16.70;57.60;;;;;;4907069;29;20029;-91
2023/05/17 09:27:00;;;;;;;10.10;3.90;;;17.10;57.30;;;;;;4916349;29;20037;-89
2023/05/17 09:29:29;;;;;;;12.57;4.00;;;17.20;56.60;;;;;;4893598;29;20561;-88
2023/05/17 09:31:55;;;;;;;9.75;3.17;;;17.00;55.70;;;;;;4894811;29;20052;-89
2023/05/17 09:34:23;;;;;;;11.38;3.22;;;16.80;55.00;;;;;;4899703;29;20035;-88
2023/05/17 09:36:50;;;;;;;10.82;3.80;;;16.80;53.30;;;;;;4891531;29;20056;-90
2023/05/17 09:39:16;;;;;;;11.82;3.92;;;17.20;53.00;;;;;;4880907;29;20040;-88
2023/05/17 09:41:48;;;;;;;10.50;3.83;;;17.10;53.40;;;;;;4884945;29;20040;-88
2023/05/17 09:44:15;;;;;;;9.50;3.60;;;17.10;54.10;;;;;;4890082;29;20043;-89
2023/05/17 09:46:46;;;;;;;10.43;4.05;;;17.40;53.60;;;;;;4885903;29;20097;-88
2023/05/17 09:49:13;;;;;;;10.00;3.67;;;17.50;52.70;;;;;;4913263;29;20151;-87
2023/05/17 09:51:47;;;;;;;18.70;4.65;;;17.60;53.20;;;;;;4902807;29;20020;-87
2023/05/17 09:54:13;;;;;;;;;;;17.60;53.60;;;;;;4895891;29;20132;-87
2023/05/17 09:56:39;;;;;;;12.13;4.05;;;17.60;53.90;;;;;;4887409;29;19927;-86
2023/05/17 09:59:15;;;;;;;11.57;3.63;;;17.60;55.30;;;;;;4892678;29;20028;-86
2023/05/17 10:01:46;;;;;;;12.90;3.92;;;17.70;53.40;;;;;;4890495;29;20494;-88
2023/05/17 10:04:13;;;;;;;10.63;3.83;;;18.00;51.70;;;;;;4883899;29;20123;-89
2023/05/17 10:06:40;;;;;;;9.70;3.45;;;17.70;49.70;;;;;;4884274;29;20122;-88
2023/05/17 10:09:09;;;;;;;11.80;3.45;;;17.60;50.30;;;;;;4884674;29;20446;-90
2023/05/17 10:12:28;;;;;;;;;;;;;;;;;;;;;
2023/05/17 10:14:55;;;;;;;10.85;3.65;;;17.50;50.50;;;;;;4891240;29;20044;-89
2023/05/17 10:17:22;;;;;;;10.68;3.47;;;17.70;51.10;;;;;;4883932;29;20040;-87
2023/05/17 10:19:48;;;;;;;10.52;3.40;;;17.70;48.60;;;;;;4888751;29;20371;-87
2023/05/17 10:22:20;;;;;;;8.93;3.88;;;18.00;51.70;;;;;;4897919;29;20485;-89
2023/05/17 10:24:47;;;;;;;12.02;3.50;;;18.00;49.10;;;;;;4882570;29;20044;-88
2023/05/17 10:27:14;;;;;;;10.70;3.33;;;18.10;48.50;;;;;;4886757;29;20056;-89
2023/05/17 10:29:42;;;;;;;9.10;3.08;;;18.40;48.30;;;;;;4898307;29;20036;-88
2023/05/17 10:32:09;;;;;;;10.25;3.45;;;18.10;49.10;;;;;;4884284;29;20045;-90
2023/05/17 10:34:37;;;;;;;13.43;4.32;;;18.10;47.80;;;;;;4876103;29;20132;-88
2023/05/17 10:37:04;;;;;;;12.25;3.58;;;18.10;50.30;;;;;;4872755;29;20045;-87
2023/05/17 10:39:37;;;;;;;12.80;5.80;;;18.10;50.10;;;;;;4877083;29;20029;-89
2023/05/17 10:42:07;;;;;;;14.15;4.85;;;18.20;49.70;;;;;;4875642;29;20033;-89
2023/05/17 10:44:36;;;;;;;13.25;3.67;;;18.40;50.00;;;;;;4875263;29;20456;-89
2023/05/17 10:47:02;;;;;;;8.20;3.30;;;18.20;50.50;;;;;;4878872;29;20060;-90
2023/05/17 10:49:30;;;;;;;10.13;3.28;;;18.00;49.50;;;;;;4889371;29;20386;-89
2023/05/17 10:52:15;;;;;;;11.15;3.55;;;17.80;51.60;;;;;;4873182;29;20096;-88
2023/05/17 10:54:42;;;;;;;9.40;3.63;;;18.20;50.80;;;;;;4883301;29;20442;-87
2023/05/17 10:57:17;;;;;;;10.10;3.55;;;17.90;49.70;;;;;;4895832;29;20100;-89
2023/05/17 10:59:57;;;;;;;11.82;3.65;;;17.80;50.80;;;;;;4897563;29;20036;-87
2023/05/17 11:02:29;;;;;;;12.65;3.90;;;18.00;50.50;;;;;;4894283;29;20068;-87
2023/05/17 11:04:56;;;;;;;11.90;3.53;;;17.90;49.30;;;;;;4886342;29;20533;-90
2023/05/17 11:07:33;;;;;;;12.27;3.17;;;17.80;49.70;;;;;;4876656;29;20097;-88
2023/05/17 11:10:02;;;;;;;13.18;3.80;;;18.10;49.20;;;;;;4882793;29;20143;-88
2023/05/17 11:12:54;;;;;;;11.48;3.40;;;18.10;48.40;;;;;;4882727;29;20557;-88
2023/05/17 11:15:26;;;;;;;8.93;3.42;;;18.10;47.10;;;;;;4894610;29;20073;-89
2023/05/17 11:17:52;;;;;;;10.65;3.38;;;17.70;46.80;;;;;;4891844;29;20047;-89
2023/05/17 11:20:24;;;;;;;10.27;2.60;;;17.70;49.80;;;;;;4882404;29;20088;-88
2023/05/17 11:23:15;;;;;;;12.18;4.13;;;18.20;47.50;;;;;;4882350;29;20545;-89
2023/05/17 11:25:41;;;;;;;11.65;3.28;;;18.10;49.40;;;;;;4890345;29;20037;-87
2023/05/17 11:28:16;;;;;;;8.55;2.90;;;17.80;49.60;;;;;;4881790;29;20576;-89
2023/05/17 11:30:46;;;;;;;9.10;3.10;;;17.40;50.70;;;;;;4893266;29;20020;-86
2023/05/17 11:33:12;;;;;;;11.52;3.35;;;17.70;48.70;;;;;;4880557;29;20032;-89
2023/05/17 11:35:39;;;;;;;9.60;3.10;;;17.80;49.10;;;;;;4890902;29;20648;-90
2023/05/17 11:38:31;;;;;;;13.10;2.83;;;17.90;47.80;;;;;;4885187;29;20032;-90
2023/05/17 11:41:19;;;;;;;11.25;3.30;;;18.50;48.70;;;;;;4897465;29;20054;-90
2023/05/17 11:43:47;;;;;;;11.35;2.95;;;18.50;45.90;;;;;;4886152;29;20092;-90
2023/05/17 11:46:23;;;;;;;11.23;2.90;;;18.30;47.00;;;;;;4888892;29;20041;-90
2023/05/17 11:48:53;;;;;;;10.20;2.60;;;18.20;46.40;;;;;;4898046;29;20031;-87
2023/05/17 11:51:22;;;;;;;8.82;2.60;;;18.30;45.20;;;;;;4899371;29;20036;-88
2023/05/17 11:53:48;;;;;;;9.95;2.60;;;18.50;44.70;;;;;;4892974;29;20032;-90
2023/05/17 11:56:14;;;;;;;10.38;2.70;;;18.90;44.80;;;;;;4895734;29;20072;-88
2023/05/17 11:58:42;;;;;;;11.68;2.67;;;18.80;44.60;;;;;;4896533;29;20018;-89
2023/05/17 12:01:09;;;;;;;9.80;2.80;;;18.60;43.90;;;;;;4889182;29;20041;-86
2023/05/17 12:03:35;;;;;;;10.75;2.80;;;18.40;45.50;;;;;;4901724;29;20063;-87
2023/05/17 12:06:10;;;;;;;10.27;2.70;;;18.50;46.90;;;;;;4902165;29;20463;-85
2023/05/17 12:08:38;;;;;;;9.95;2.60;;;18.60;45.00;;;;;;4903554;29;20024;-88
2023/05/17 12:11:05;;;;;;;7.72;2.63;;;18.60;44.00;;;;;;4886407;29;20102;-86
2023/05/17 12:13:34;;;;;;;10.00;2.75;;;18.30;45.80;;;;;;4865120;29;20025;-87
2023/05/17 12:16:04;;;;;;;9.27;3.15;;;18.50;46.90;;;;;;4874883;29;20115;-86
2023/05/17 12:18:38;;;;;;;11.30;2.90;;;18.40;43.90;;;;;;4872171;29;20028;-87
2023/05/17 12:21:05;;;;;;;12.18;3.15;;;18.40;44.90;;;;;;4886174;29;20047;-86
2023/05/17 12:23:38;;;;;;;8.85;2.75;;;18.30;45.80;;;;;;4896749;29;20062;-84
2023/05/17 12:26:11;;;;;;;11.25;2.83;;;18.50;45.60;;;;;;4876294;29;20029;-87
2023/05/17 12:28:41;;;;;;;13.43;3.85;;;18.20;46.30;;;;;;4883737;29;20024;-85
2023/05/17 12:31:13;;;;;;;9.60;3.05;;;18.10;45.30;;;;;;4885042;29;20029;-84
2023/05/17 12:33:41;;;;;;;10.27;2.78;;;18.50;47.00;;;;;;4864491;29;20104;-86
2023/05/17 12:36:09;;;;;;;9.35;2.78;;;18.90;46.40;;;;;;4869740;29;20044;-86
2023/05/17 12:38:40;;;;;;;9.30;2.80;;;18.60;46.50;;;;;;4870620;29;20035;-87
2023/05/17 12:41:11;;;;;;;10.27;2.95;;;18.40;46.40;;;;;;4862918;29;20061;-86
2023/05/17 12:43:38;;;;;;;9.90;3.00;;;18.60;48.70;;;;;;4878958;29;20081;-88
2023/05/17 12:46:09;;;;;;;9.90;2.85;;;19.00;47.40;;;;;;4867536;29;20138;-89
2023/05/17 12:48:36;;;;;;;9.82;2.90;;;18.80;44.70;;;;;;4872139;29;20147;-87
2023/05/17 12:51:13;;;;;;;8.43;2.55;;;18.00;47.10;;;;;;4878581;29;20045;-88